Time;durP1;ratioP1;P1;durP2;ratioP2;P2;SDS_P1;SDS_P2;PMS_P1;PMS_P2;Temp;Humidity;BMP_temperature;BMP_pressure;BME280_temperature;BME280_humidity;BME280_pressure;Samples;Min_cycle;Max_cycle;Signal;HPM_P1;HPM_P2
2023/09/17 00:00:30;;;;;;;4.28;3.35;;;;;;;;;;5039712;28;20051;-69
2023/09/17 00:02:56;;;;;;;3.95;2.97;;;;;;;;;;5039934;28;20025;-69
2023/09/17 00:05:23;;;;;;;4.95;3.63;;;;;;;;;;5039764;28;20469;-68
2023/09/17 00:07:49;;;;;;;4.57;3.20;;;;;;;;;;5039396;28;20153;-68
2023/09/17 00:10:15;;;;;;;4.97;3.33;;;;;;;;;;5039710;28;20053;-68
2023/09/17 00:12:41;;;;;;;3.47;3.00;;;;;;;;;;5039672;28;20033;-68
2023/09/17 00:15:07;;;;;;;3.70;3.00;;;;;;;;;;5039676;28;20393;-68
2023/09/17 00:17:33;;;;;;;4.20;3.58;;;;;;;;;;5039694;28;20017;-68
2023/09/17 00:19:59;;;;;;;3.40;2.97;;;;;;;;;;5039764;28;20029;-68
2023/09/17 00:22:25;;;;;;;5.78;3.50;;;;;;;;;;5039335;28;20024;-68
2023/09/17 00:24:51;;;;;;;4.32;3.63;;;;;;;;;;5039388;28;20379;-68
2023/09/17 00:27:17;;;;;;;3.67;3.25;;;;;;;;;;5039482;28;20025;-68
2023/09/17 00:29:43;;;;;;;4.93;3.13;;;;;;;;;;5039571;28;20021;-68
2023/09/17 00:32:09;;;;;;;4.35;3.17;;;;;;;;;;5039373;28;20021;-68
2023/09/17 00:34:35;;;;;;;3.63;3.17;;;;;;;;;;5038035;28;20032;-68
2023/09/17 00:37:01;;;;;;;3.08;2.78;;;;;;;;;;5039103;28;20028;-68
2023/09/17 00:39:28;;;;;;;3.85;3.22;;;;;;;;;;5037856;28;20022;-68
2023/09/17 00:41:54;;;;;;;3.70;3.15;;;;;;;;;;5039156;28;20562;-68
2023/09/17 00:44:20;;;;;;;4.55;3.25;;;;;;;;;;5039213;28;20029;-68
2023/09/17 00:46:47;;;;;;;3.78;3.25;;;;;;;;;;5039249;28;20057;-69
2023/09/17 00:49:14;;;;;;;4.82;2.97;;;;;;;;;;5039046;28;20025;-69
2023/09/17 00:51:43;;;;;;;3.50;3.13;;;;;;;;;;5038902;28;20072;-69
2023/09/17 00:54:10;;;;;;;4.45;3.08;;;;;;;;;;5039170;28;20068;-68
2023/09/17 00:56:36;;;;;;;3.97;3.13;;;;;;;;;;5044593;28;20455;-68
2023/09/17 00:59:03;;;;;;;5.50;3.35;;;;;;;;;;5037490;28;20080;-68
2023/09/17 01:01:29;;;;;;;3.55;3.17;;;;;;;;;;5038855;28;20520;-67
2023/09/17 01:03:55;;;;;;;4.25;3.40;;;;;;;;;;5038915;28;20026;-68
2023/09/17 01:06:21;;;;;;;4.38;3.30;;;;;;;;;;5038545;28;20485;-67
2023/09/17 01:08:48;;;;;;;5.40;3.47;;;;;;;;;;5037482;28;20021;-67
2023/09/17 01:11:14;;;;;;;3.97;2.95;;;;;;;;;;5037284;28;20065;-67
2023/09/17 01:13:42;;;;;;;3.50;2.95;;;;;;;;;;5038771;28;20112;-67
2023/09/17 01:16:09;;;;;;;3.78;3.33;;;;;;;;;;5038561;28;20033;-68
2023/09/17 01:18:35;;;;;;;3.67;2.75;;;;;;;;;;5037933;28;20032;-68
2023/09/17 01:21:01;;;;;;;4.68;2.95;;;;;;;;;;5037925;28;20083;-67
2023/09/17 01:23:49;;;;;;;3.90;3.33;;;;;;;;;;5038577;28;20040;-67
2023/09/17 01:26:17;;;;;;;4.00;3.05;;;;;;;;;;5036736;28;20394;-68
2023/09/17 01:28:43;;;;;;;4.47;3.55;;;;;;;;;;5038283;28;20037;-68
2023/09/17 01:31:09;;;;;;;3.78;3.08;;;;;;;;;;5038114;28;20079;-68
2023/09/17 01:33:35;;;;;;;4.53;3.25;;;;;;;;;;5038434;28;20037;-68
2023/09/17 01:36:08;;;;;;;4.35;3.17;;;;;;;;;;5037806;28;20028;-68
2023/09/17 01:38:35;;;;;;;;;;;;;;;;;;5037370;28;20059;-68
2023/09/17 01:41:04;;;;;;;4.75;3.05;;;;;;;;;;5037824;28;19941;-69
2023/09/17 01:43:30;;;;;;;3.08;2.50;;;;;;;;;;5038325;28;20051;-68
2023/09/17 01:45:57;;;;;;;3.85;2.85;;;;;;;;;;5038131;28;20036;-68
2023/09/17 01:48:24;;;;;;;5.53;3.17;;;;;;;;;;5038066;28;20018;-68
2023/09/17 01:50:51;;;;;;;4.40;2.80;;;;;;;;;;5024896;28;20021;-69
2023/09/17 01:53:17;;;;;;;5.40;3.30;;;;;;;;;;5037960;28;20018;-68
2023/09/17 01:55:43;;;;;;;4.15;3.28;;;;;;;;;;5045101;28;20026;-68
2023/09/17 01:58:12;;;;;;;5.10;3.20;;;;;;;;;;5037625;28;20037;-68
2023/09/17 02:00:38;;;;;;;3.47;2.72;;;;;;;;;;5036225;28;20401;-68
2023/09/17 02:03:05;;;;;;;3.42;2.72;;;;;;;;;;5036439;28;20029;-68
2023/09/17 02:05:31;;;;;;;3.75;3.13;;;;;;;;;;5036282;28;20037;-68
2023/09/17 02:07:57;;;;;;;4.47;2.60;;;;;;;;;;5037650;28;20084;-68
2023/09/17 02:10:23;;;;;;;3.28;2.80;;;;;;;;;;5037756;28;20033;-68
2023/09/17 02:12:49;;;;;;;3.22;2.63;;;;;;;;;;5036277;28;20037;-68
2023/09/17 02:15:15;;;;;;;4.95;3.05;;;;;;;;;;5037860;28;20085;-68
2023/09/17 02:17:42;;;;;;;3.90;2.78;;;;;;;;;;5037508;28;20112;-68
2023/09/17 02:20:11;;;;;;;3.75;2.72;;;;;;;;;;5037392;28;20387;-67
2023/09/17 02:22:37;;;;;;;3.60;2.67;;;;;;;;;;5037427;28;20043;-68
2023/09/17 02:25:04;;;;;;;3.55;2.65;;;;;;;;;;5037424;28;20021;-68
2023/09/17 02:27:30;;;;;;;3.30;2.80;;;;;;;;;;5037383;28;20486;-68
2023/09/17 02:29:56;;;;;;;4.75;2.60;;;;;;;;;;5037315;28;20040;-67
2023/09/17 02:32:22;;;;;;;3.83;2.70;;;;;;;;;;5036634;28;20397;-68
2023/09/17 02:34:49;;;;;;;4.57;2.80;;;;;;;;;;5037487;28;20053;-68
2023/09/17 02:37:15;;;;;;;2.53;2.33;;;;;;;;;;5037023;28;20113;-68
2023/09/17 02:39:41;;;;;;;3.42;2.95;;;;;;;;;;5037061;28;21229;-73
2023/09/17 02:42:07;;;;;;;2.88;2.40;;;;;;;;;;5037096;28;20028;-71
2023/09/17 02:44:33;;;;;;;2.80;2.50;;;;;;;;;;5037206;28;20474;-75
2023/09/17 02:46:59;;;;;;;3.55;2.50;;;;;;;;;;5035773;28;20073;-74
2023/09/17 02:49:27;;;;;;;3.75;2.58;;;;;;;;;;5037109;28;20101;-74
2023/09/17 02:51:52;;;;;;;3.47;2.60;;;;;;;;;;5036845;28;20056;-74
2023/09/17 02:54:19;;;;;;;3.47;2.53;;;;;;;;;;5039745;28;20498;-74
2023/09/17 02:56:44;;;;;;;3.30;2.63;;;;;;;;;;5040853;28;20050;-74
2023/09/17 02:59:11;;;;;;;2.70;2.45;;;;;;;;;;5037119;28;20030;-75
2023/09/17 03:01:38;;;;;;;2.88;2.38;;;;;;;;;;5037007;28;20497;-74
2023/09/17 03:04:05;;;;;;;3.50;2.47;;;;;;;;;;5037313;28;20075;-75
2023/09/17 03:06:31;;;;;;;3.28;2.38;;;;;;;;;;5036672;28;20521;-75
2023/09/17 03:08:57;;;;;;;3.15;2.45;;;;;;;;;;5037084;28;20075;-75
2023/09/17 03:11:23;;;;;;;3.00;2.42;;;;;;;;;;5036948;28;20026;-74
2023/09/17 03:13:50;;;;;;;3.10;2.22;;;;;;;;;;5037019;28;20036;-75
2023/09/17 03:16:17;;;;;;;3.25;2.58;;;;;;;;;;5035558;28;20030;-75
2023/09/17 03:18:43;;;;;;;2.35;1.90;;;;;;;;;;5035880;28;20034;-74
2023/09/17 03:21:09;;;;;;;2.65;2.28;;;;;;;;;;5036404;28;20036;-74
2023/09/17 03:23:36;;;;;;;2.83;2.20;;;;;;;;;;5035678;28;20509;-75
2023/09/17 03:26:03;;;;;;;2.80;2.30;;;;;;;;;;5035437;28;20393;-76
2023/09/17 03:28:29;;;;;;;2.30;1.95;;;;;;;;;;5037039;28;20077;-74
2023/09/17 03:30:55;;;;;;;3.00;2.15;;;;;;;;;;5036836;28;20032;-74
2023/09/17 03:33:22;;;;;;;3.63;2.15;;;;;;;;;;5036942;28;20131;-74
2023/09/17 03:35:48;;;;;;;2.67;2.15;;;;;;;;;;5035202;28;20569;-74
2023/09/17 03:38:14;;;;;;;2.83;1.90;;;;;;;;;;5036973;28;20029;-74
2023/09/17 03:40:40;;;;;;;4.00;2.20;;;;;;;;;;5034818;28;20098;-74
2023/09/17 03:43:08;;;;;;;2.88;2.20;;;;;;;;;;5037858;28;20520;-74
2023/09/17 03:45:34;;;;;;;3.15;2.20;;;;;;;;;;5040273;28;20022;-73
2023/09/17 03:48:00;;;;;;;2.70;2.28;;;;;;;;;;5040450;28;20033;-73
2023/09/17 03:50:27;;;;;;;3.53;2.00;;;;;;;;;;5038660;28;20025;-73
2023/09/17 03:52:54;;;;;;;3.30;1.80;;;;;;;;;;5040286;28;20089;-73
2023/09/17 03:55:21;;;;;;;4.10;1.90;;;;;;;;;;5045771;28;20048;-74
2023/09/17 03:57:47;;;;;;;2.67;2.10;;;;;;;;;;5039876;28;20053;-75
2023/09/17 04:00:16;;;;;;;2.90;1.95;;;;;;;;;;5038643;28;20029;-74
2023/09/17 04:02:42;;;;;;;4.03;2.10;;;;;;;;;;5040006;28;20083;-75
2023/09/17 04:05:13;;;;;;;2.95;1.70;;;;;;;;;;5039779;28;20025;-76
2023/09/17 04:07:44;;;;;;;2.25;1.88;;;;;;;;;;5040212;28;20433;-76
2023/09/17 04:10:10;;;;;;;2.38;2.10;;;;;;;;;;5039688;28;20017;-75
2023/09/17 04:12:36;;;;;;;2.83;1.95;;;;;;;;;;5038406;28;20030;-76
2023/09/17 04:15:09;;;;;;;2.45;1.63;;;;;;;;;;5039970;28;20022;-76
2023/09/17 04:17:35;;;;;;;3.13;1.92;;;;;;;;;;5038266;28;20033;-75
2023/09/17 04:20:03;;;;;;;2.25;1.70;;;;;;;;;;5038110;28;20029;-75
2023/09/17 04:22:29;;;;;;;2.53;1.80;;;;;;;;;;5039613;28;20025;-75
2023/09/17 04:24:55;;;;;;;2.45;1.70;;;;;;;;;;5038189;28;20029;-72
2023/09/17 04:27:22;;;;;;;2.45;1.65;;;;;;;;;;5039538;28;20034;-72
2023/09/17 04:29:48;;;;;;;2.28;1.80;;;;;;;;;;5039604;28;20014;-72
2023/09/17 04:32:14;;;;;;;2.10;1.67;;;;;;;;;;5039251;28;20071;-73
2023/09/17 04:34:40;;;;;;;3.47;1.92;;;;;;;;;;5038153;28;20025;-72
2023/09/17 04:37:07;;;;;;;2.00;1.80;;;;;;;;;;5039077;28;20032;-73
2023/09/17 04:39:32;;;;;;;2.78;1.85;;;;;;;;;;5039500;28;20151;-72
2023/09/17 04:41:58;;;;;;;3.38;2.05;;;;;;;;;;5039125;28;20057;-74
2023/09/17 04:44:24;;;;;;;2.28;1.90;;;;;;;;;;5037957;28;20042;-75
2023/09/17 04:46:50;;;;;;;2.50;1.98;;;;;;;;;;5039229;28;20080;-75
2023/09/17 04:49:16;;;;;;;2.83;1.80;;;;;;;;;;5037869;28;20022;-74
2023/09/17 04:51:42;;;;;;;2.63;1.80;;;;;;;;;;5038662;28;20033;-74
2023/09/17 04:54:08;;;;;;;2.22;1.85;;;;;;;;;;5039716;28;20025;-73
2023/09/17 04:56:35;;;;;;;3.28;1.75;;;;;;;;;;5042787;28;20058;-73
2023/09/17 04:59:02;;;;;;;3.53;1.80;;;;;;;;;;5037666;28;20532;-73
2023/09/17 05:01:28;;;;;;;2.30;2.00;;;;;;;;;;5037486;28;20025;-73
2023/09/17 05:03:54;;;;;;;2.95;1.90;;;;;;;;;;5037670;28;20017;-73
2023/09/17 05:06:20;;;;;;;3.00;2.10;;;;;;;;;;5038546;28;20021;-73
2023/09/17 05:08:46;;;;;;;3.10;2.05;;;;;;;;;;5039018;28;20018;-73
2023/09/17 05:11:12;;;;;;;2.75;2.00;;;;;;;;;;5037164;28;20535;-74
2023/09/17 05:13:38;;;;;;;4.18;2.22;;;;;;;;;;5038891;28;20029;-74
2023/09/17 05:16:06;;;;;;;2.38;2.00;;;;;;;;;;5037547;28;20397;-74
2023/09/17 05:18:32;;;;;;;3.60;2.25;;;;;;;;;;5038762;28;20037;-75
2023/09/17 05:20:58;;;;;;;2.75;2.15;;;;;;;;;;5038276;28;20021;-75
2023/09/17 05:23:24;;;;;;;3.20;2.28;;;;;;;;;;5037281;28;20025;-74
2023/09/17 05:25:50;;;;;;;2.53;2.15;;;;;;;;;;5038276;28;20026;-74
2023/09/17 05:28:16;;;;;;;2.92;2.22;;;;;;;;;;5038551;28;20029;-74
2023/09/17 05:30:42;;;;;;;3.13;2.10;;;;;;;;;;5036899;28;20025;-74
2023/09/17 05:33:08;;;;;;;3.45;2.10;;;;;;;;;;5038485;28;20033;-74
2023/09/17 05:35:36;;;;;;;3.08;2.00;;;;;;;;;;5037770;28;20077;-74
2023/09/17 05:38:02;;;;;;;4.80;2.20;;;;;;;;;;5038751;28;20060;-74
2023/09/17 05:40:28;;;;;;;2.60;1.90;;;;;;;;;;5037919;28;20053;-74
2023/09/17 05:42:54;;;;;;;2.33;1.63;;;;;;;;;;5036528;28;20026;-75
2023/09/17 05:45:20;;;;;;;3.35;1.80;;;;;;;;;;5037995;28;20130;-75
2023/09/17 05:47:46;;;;;;;2.40;1.75;;;;;;;;;;5037983;28;20032;-75
2023/09/17 05:50:12;;;;;;;2.70;1.77;;;;;;;;;;5037519;28;20108;-76
2023/09/17 05:52:39;;;;;;;2.22;1.65;;;;;;;;;;5036653;28;20033;-75
2023/09/17 05:55:05;;;;;;;2.30;1.60;;;;;;;;;;5044660;28;20032;-74
2023/09/17 05:57:31;;;;;;;2.72;1.60;;;;;;;;;;5037709;28;20077;-74
2023/09/17 05:59:58;;;;;;;2.60;1.48;;;;;;;;;;5037701;28;20026;-74
2023/09/17 06:02:24;;;;;;;2.50;1.70;;;;;;;;;;5037981;28;20390;-74
2023/09/17 06:04:53;;;;;;;2.30;1.40;;;;;;;;;;5037354;28;20100;-73
2023/09/17 06:07:20;;;;;;;2.85;1.67;;;;;;;;;;5036375;28;20029;-73
2023/09/17 06:09:46;;;;;;;2.15;1.63;;;;;;;;;;5037612;28;20501;-73
2023/09/17 06:12:12;;;;;;;1.67;1.30;;;;;;;;;;5037721;28;20029;-73
2023/09/17 06:14:39;;;;;;;2.63;1.60;;;;;;;;;;5036209;28;20494;-75
2023/09/17 06:17:05;;;;;;;3.95;2.08;;;;;;;;;;5037844;28;20036;-75
2023/09/17 06:19:33;;;;;;;2.30;1.83;;;;;;;;;;5037370;28;20017;-75
2023/09/17 06:21:59;;;;;;;3.58;1.80;;;;;;;;;;5037239;28;20079;-75
2023/09/17 06:24:25;;;;;;;2.72;1.58;;;;;;;;;;5037438;28;20030;-75
2023/09/17 06:26:51;;;;;;;1.83;1.50;;;;;;;;;;5037459;28;20556;-76
2023/09/17 06:29:17;;;;;;;1.80;1.60;;;;;;;;;;5037469;28;20017;-75
2023/09/17 06:31:43;;;;;;;2.97;1.77;;;;;;;;;;5037607;28;20613;-75
2023/09/17 06:34:09;;;;;;;2.03;1.80;;;;;;;;;;5035909;28;20088;-75
2023/09/17 06:36:36;;;;;;;3.00;1.70;;;;;;;;;;5035848;28;20076;-74
2023/09/17 06:39:04;;;;;;;3.70;1.67;;;;;;;;;;5037031;28;20026;-75
2023/09/17 06:41:30;;;;;;;2.17;1.80;;;;;;;;;;5037072;28;20108;-75
2023/09/17 06:43:56;;;;;;;1.80;1.50;;;;;;;;;;5037145;28;20052;-75
2023/09/17 06:46:23;;;;;;;1.85;1.30;;;;;;;;;;5037348;28;20030;-75
2023/09/17 06:48:50;;;;;;;2.00;1.40;;;;;;;;;;5035610;28;20029;-75
2023/09/17 06:51:16;;;;;;;1.95;1.60;;;;;;;;;;5036926;28;20108;-75
2023/09/17 06:53:42;;;;;;;3.40;1.58;;;;;;;;;;5037067;28;20051;-75
2023/09/17 06:56:09;;;;;;;3.95;1.60;;;;;;;;;;5036815;28;20037;-75
2023/09/17 06:58:35;;;;;;;2.08;1.50;;;;;;;;;;5036776;28;20026;-76
2023/09/17 07:01:01;;;;;;;1.95;1.40;;;;;;;;;;5036041;28;20112;-76
2023/09/17 07:03:27;;;;;;;3.00;2.03;;;;;;;;;;5036953;28;20056;-76
2023/09/17 07:05:53;;;;;;;3.03;1.65;;;;;;;;;;5036850;28;20032;-76
2023/09/17 07:08:19;;;;;;;2.53;1.55;;;;;;;;;;5033774;28;20494;-76
2023/09/17 07:10:45;;;;;;;2.55;2.03;;;;;;;;;;5034932;28;20108;-77
2023/09/17 07:13:12;;;;;;;3.13;1.80;;;;;;;;;;5035370;28;20048;-75
2023/09/17 07:15:38;;;;;;;3.88;1.58;;;;;;;;;;5035013;28;20547;-75
2023/09/17 07:18:07;;;;;;;1.85;1.45;;;;;;;;;;5036420;28;20442;-75
2023/09/17 07:20:33;;;;;;;2.20;1.60;;;;;;;;;;5037933;28;20025;-75
2023/09/17 07:22:59;;;;;;;2.95;1.77;;;;;;;;;;5039350;28;20026;-76
2023/09/17 07:25:25;;;;;;;2.38;1.70;;;;;;;;;;5039453;28;20500;-76
2023/09/17 07:27:51;;;;;;;3.55;1.77;;;;;;;;;;5035653;28;20022;-77
2023/09/17 07:30:17;;;;;;;3.08;1.50;;;;;;;;;;5035209;28;20547;-79
2023/09/17 07:32:43;;;;;;;1.65;1.25;;;;;;;;;;5022003;28;20026;-79
2023/09/17 07:35:09;;;;;;;3.42;1.70;;;;;;;;;;5035110;28;20465;-75
2023/09/17 07:37:35;;;;;;;2.50;1.55;;;;;;;;;;5040655;28;20032;-75
2023/09/17 07:40:04;;;;;;;3.53;1.60;;;;;;;;;;5034581;28;20088;-76
2023/09/17 07:42:30;;;;;;;2.97;1.42;;;;;;;;;;5040359;28;20385;-75
2023/09/17 07:44:56;;;;;;;2.45;1.60;;;;;;;;;;5039601;28;20018;-75
2023/09/17 07:47:22;;;;;;;2.35;1.42;;;;;;;;;;5037968;28;20025;-69
2023/09/17 07:49:48;;;;;;;2.38;1.65;;;;;;;;;;5039317;28;20017;-69
2023/09/17 07:52:14;;;;;;;4.60;1.90;;;;;;;;;;5039283;28;20470;-74
2023/09/17 07:54:41;;;;;;;2.63;1.42;;;;;;;;;;5041675;28;20032;-70
2023/09/17 07:57:07;;;;;;;4.65;1.75;;;;;;;;;;5038964;28;20052;-69
2023/09/17 07:59:33;;;;;;;3.42;1.80;;;;;;;;;;5038478;28;20029;-69
2023/09/17 08:01:59;;;;;;;3.15;1.52;;;;;;;;;;5039789;28;20075;-69
2023/09/17 08:04:26;;;;;;;1.90;1.20;;;;;;;;;;5039314;28;20024;-67
2023/09/17 08:06:53;;;;;;;2.83;1.63;;;;;;;;;;5037895;28;20043;-67
2023/09/17 08:09:19;;;;;;;2.10;1.58;;;;;;;;;;5034077;28;20100;-67
2023/09/17 08:11:45;;;;;;;3.80;1.60;;;;;;;;;;5028337;28;20108;-67
2023/09/17 08:14:11;;;;;;;1.95;1.40;;;;;;;;;;5039500;28;20025;-67
2023/09/17 08:16:37;;;;;;;1.67;1.13;;;;;;;;;;5038240;28;20036;-67
2023/09/17 08:19:04;;;;;;;3.60;1.20;;;;;;;;;;5035247;28;20029;-68
2023/09/17 08:21:30;;;;;;;3.45;1.40;;;;;;;;;;5035313;28;20056;-66
2023/09/17 08:23:56;;;;;;;1.83;1.20;;;;;;;;;;5036089;28;20395;-67
2023/09/17 08:26:22;;;;;;;1.83;1.00;;;;;;;;;;5037904;28;20113;-66
2023/09/17 08:28:51;;;;;;;2.70;1.02;;;;;;;;;;5037854;28;20029;-66
2023/09/17 08:31:18;;;;;;;1.63;1.35;;;;;;;;;;5036326;28;20030;-67
2023/09/17 08:33:45;;;;;;;2.70;1.13;;;;;;;;;;5037807;28;20052;-66
2023/09/17 08:36:11;;;;;;;2.58;1.30;;;;;;;;;;5039020;28;20025;-66
2023/09/17 08:38:38;;;;;;;2.08;1.40;;;;;;;;;;5035066;28;20030;-66
2023/09/17 08:41:05;;;;;;;2.25;1.23;;;;;;;;;;5039602;28;20505;-66
2023/09/17 08:43:32;;;;;;;2.03;1.13;;;;;;;;;;5040299;28;20029;-66
2023/09/17 08:45:59;;;;;;;2.75;1.25;;;;;;;;;;5039003;28;20028;-66
2023/09/17 08:48:25;;;;;;;2.17;1.27;;;;;;;;;;5040209;28;20092;-66
2023/09/17 08:50:53;;;;;;;1.55;1.20;;;;;;;;;;5038391;28;20057;-66
2023/09/17 08:53:31;;;;;;;2.00;1.35;;;;;;;;;;5038235;28;20022;-65
2023/09/17 08:55:59;;;;;;;2.95;1.27;;;;;;;;;;5038923;28;20021;-65
2023/09/17 08:58:35;;;;;;;2.67;1.20;;;;;;;;;;5038865;28;20037;-65
2023/09/17 09:01:03;;;;;;;3.97;1.33;;;;;;;;;;5038504;28;20109;-65
2023/09/17 09:03:33;;;;;;;2.75;1.50;;;;;;;;;;5038647;28;20390;-66
2023/09/17 09:05:59;;;;;;;3.90;2.38;;;;;;;;;;5038375;28;20075;-65
2023/09/17 09:08:26;;;;;;;2.70;1.30;;;;;;;;;;5038728;28;20100;-65
2023/09/17 09:10:52;;;;;;;1.75;1.27;;;;;;;;;;5038332;28;20032;-65
2023/09/17 09:13:19;;;;;;;2.22;1.40;;;;;;;;;;5039665;28;20029;-64
2023/09/17 09:15:45;;;;;;;2.15;1.48;;;;;;;;;;5038757;28;20025;-65
2023/09/17 09:18:11;;;;;;;3.10;1.27;;;;;;;;;;5036197;28;20068;-65
2023/09/17 09:20:38;;;;;;;1.48;1.10;;;;;;;;;;5038135;28;20021;-65
2023/09/17 09:23:05;;;;;;;1.80;1.30;;;;;;;;;;5038260;28;20026;-65
2023/09/17 09:25:31;;;;;;;3.95;1.20;;;;;;;;;;5038286;28;20021;-67
2023/09/17 09:28:01;;;;;;;1.30;1.00;;;;;;;;;;5038134;28;20022;-67
2023/09/17 09:30:28;;;;;;;2.25;1.50;;;;;;;;;;5038347;28;20029;-66
2023/09/17 09:32:54;;;;;;;2.13;1.00;;;;;;;;;;5037745;28;20036;-66
2023/09/17 09:35:20;;;;;;;2.55;1.23;;;;;;;;;;5036005;28;20021;-64
2023/09/17 09:37:46;;;;;;;2.10;1.05;;;;;;;;;;5037920;28;20061;-64
2023/09/17 09:40:14;;;;;;;3.13;1.40;;;;;;;;;;5037380;28;20036;-65
2023/09/17 09:42:42;;;;;;;2.22;0.90;;;;;;;;;;5038135;28;20075;-66
2023/09/17 09:45:13;;;;;;;2.15;1.10;;;;;;;;;;5037884;28;20026;-66
2023/09/17 09:47:39;;;;;;;3.15;1.98;;;;;;;;;;5038893;28;20056;-67
2023/09/17 09:50:05;;;;;;;3.50;2.00;;;;;;;;;;5036090;28;20021;-66
2023/09/17 09:52:31;;;;;;;1.92;1.50;;;;;;;;;;5037720;28;20036;-70
2023/09/17 09:54:58;;;;;;;2.00;1.30;;;;;;;;;;5044394;28;20028;-65
2023/09/17 09:57:25;;;;;;;1.92;1.10;;;;;;;;;;5037832;28;20103;-66
2023/09/17 09:59:51;;;;;;;1.35;1.00;;;;;;;;;;5037651;28;20021;-66
2023/09/17 10:02:20;;;;;;;2.60;0.82;;;;;;;;;;5037425;28;20029;-65
2023/09/17 10:04:46;;;;;;;1.40;0.85;;;;;;;;;;5036686;28;20017;-66
2023/09/17 10:07:15;;;;;;;1.85;0.98;;;;;;;;;;5036882;28;20033;-67
2023/09/17 10:09:42;;;;;;;1.42;1.00;;;;;;;;;;5036690;28;20010;-67
2023/09/17 10:12:08;;;;;;;1.30;0.90;;;;;;;;;;5035700;28;20029;-66
2023/09/17 10:14:38;;;;;;;1.50;1.00;;;;;;;;;;5037340;28;20516;-66
2023/09/17 10:17:06;;;;;;;1.30;0.90;;;;;;;;;;5037566;28;20033;-66
2023/09/17 10:19:34;;;;;;;2.67;1.20;;;;;;;;;;5034188;28;20085;-66
2023/09/17 10:22:03;;;;;;;2.03;1.33;;;;;;;;;;5036533;28;20478;-66
2023/09/17 10:24:31;;;;;;;3.83;1.85;;;;;;;;;;5036542;28;20021;-67
2023/09/17 10:26:59;;;;;;;2.28;1.13;;;;;;;;;;5036583;28;20025;-65
2023/09/17 10:29:26;;;;;;;1.48;1.17;;;;;;;;;;5036595;28;20022;-65
2023/09/17 10:31:52;;;;;;;2.22;1.00;;;;;;;;;;5037294;28;20034;-65
2023/09/17 10:34:19;;;;;;;1.60;1.00;;;;;;;;;;5037151;28;20021;-67
2023/09/17 10:36:47;;;;;;;2.03;1.40;;;;;;;;;;5037037;28;20025;-65
2023/09/17 10:39:15;;;;;;;1.52;1.20;;;;;;;;;;5037067;28;20040;-66
2023/09/17 10:41:41;;;;;;;2.17;1.08;;;;;;;;;;5036789;28;20029;-66
2023/09/17 10:44:08;;;;;;;3.58;1.48;;;;;;;;;;5037019;28;20395;-66
2023/09/17 10:46:40;;;;;;;1.55;1.08;;;;;;;;;;5038336;28;20044;-65
2023/09/17 10:49:07;;;;;;;2.47;1.27;;;;;;;;;;5036867;28;20044;-65
2023/09/17 10:51:33;;;;;;;3.38;1.60;;;;;;;;;;5036711;28;20034;-65
2023/09/17 10:53:59;;;;;;;1.75;1.17;;;;;;;;;;5041080;28;20025;-64
2023/09/17 10:56:25;;;;;;;3.67;1.52;;;;;;;;;;5049384;28;20057;-65
2023/09/17 10:58:52;;;;;;;1.40;1.15;;;;;;;;;;5040963;28;20033;-65
2023/09/17 11:01:19;;;;;;;3.97;2.47;;;;;;;;;;5039562;28;20040;-67
2023/09/17 11:03:46;;;;;;;3.42;1.63;;;;;;;;;;5040653;28;20101;-65
2023/09/17 11:06:16;;;;;;;2.22;1.40;;;;;;;;;;5040298;28;20480;-66
2023/09/17 11:08:43;;;;;;;3.20;1.17;;;;;;;;;;5040549;28;20025;-65
2023/09/17 11:11:11;;;;;;;2.67;1.20;;;;;;;;;;5040545;28;20552;-66
2023/09/17 11:13:37;;;;;;;1.92;1.10;;;;;;;;;;5040268;28;20564;-66
2023/09/17 11:16:03;;;;;;;2.50;1.23;;;;;;;;;;5038824;28;20148;-67
2023/09/17 11:18:29;;;;;;;2.50;1.40;;;;;;;;;;5038017;28;20025;-65
2023/09/17 11:21:06;;;;;;;2.83;1.45;;;;;;;;;;5040419;28;20034;-65
2023/09/17 11:23:52;;;;;;;2.40;1.30;;;;;;;;;;5040656;28;20036;-66
2023/09/17 11:26:20;;;;;;;2.08;1.20;;;;;;;;;;5040073;28;20037;-68
2023/09/17 11:28:51;;;;;;;1.60;1.20;;;;;;;;;;5040173;28;20071;-69
2023/09/17 11:31:17;;;;;;;2.60;1.42;;;;;;;;;;5039731;28;20069;-63
2023/09/17 11:33:44;;;;;;;2.00;1.45;;;;;;;;;;5040596;28;20482;-63
2023/09/17 11:36:10;;;;;;;1.95;1.33;;;;;;;;;;5040260;28;20737;-63
2023/09/17 11:38:36;;;;;;;2.72;1.60;;;;;;;;;;5038992;28;20032;-63
2023/09/17 11:41:09;;;;;;;2.53;1.30;;;;;;;;;;5039970;28;20083;-63
2023/09/17 11:43:37;;;;;;;3.13;1.60;;;;;;;;;;5038822;28;20025;-63
2023/09/17 11:46:04;;;;;;;3.25;1.80;;;;;;;;;;5040330;28;20033;-63
2023/09/17 11:48:31;;;;;;;3.25;1.42;;;;;;;;;;5041159;28;20021;-63
2023/09/17 11:51:15;;;;;;;3.33;1.77;;;;;;;;;;5040002;28;20021;-63
2023/09/17 11:53:51;;;;;;;2.97;1.90;;;;;;;;;;5039835;28;21464;-63
2023/09/17 11:56:17;;;;;;;2.30;1.60;;;;;;;;;;5048129;28;20033;-63
2023/09/17 11:58:43;;;;;;;2.83;1.85;;;;;;;;;;5039962;28;20018;-64
2023/09/17 12:01:09;;;;;;;2.38;1.77;;;;;;;;;;5040048;28;20033;-63
2023/09/17 12:03:35;;;;;;;2.78;1.80;;;;;;;;;;5039308;28;20022;-62
2023/09/17 12:06:04;;;;;;;4.88;1.90;;;;;;;;;;5039820;28;20116;-64
2023/09/17 12:08:31;;;;;;;2.60;1.70;;;;;;;;;;5039677;28;20486;-63
2023/09/17 12:11:02;;;;;;;3.08;1.63;;;;;;;;;;5039791;28;20033;-64
2023/09/17 12:13:33;;;;;;;2.63;1.73;;;;;;;;;;5039186;28;20026;-63
2023/09/17 12:16:00;;;;;;;4.03;1.90;;;;;;;;;;5038417;28;20034;-65
2023/09/17 12:18:26;;;;;;;3.03;1.85;;;;;;;;;;5036851;28;20025;-64
2023/09/17 12:21:07;;;;;;;4.25;1.95;;;;;;;;;;5039046;28;20068;-64
2023/09/17 12:26:56;;;;;;;3.08;1.75;;;;;;;;;;5034244;28;20026;-62
2023/09/17 12:29:22;;;;;;;2.83;1.83;;;;;;;;;;5038089;28;20045;-62
2023/09/17 12:31:49;;;;;;;2.92;1.90;;;;;;;;;;5039339;28;20461;-62
2023/09/17 12:34:15;;;;;;;4.15;1.95;;;;;;;;;;5039197;28;20025;-62
2023/09/17 12:36:43;;;;;;;2.67;1.83;;;;;;;;;;5039181;28;20026;-63
2023/09/17 12:39:09;;;;;;;2.60;1.80;;;;;;;;;;5038820;28;20033;-63
2023/09/17 12:41:35;;;;;;;2.92;1.83;;;;;;;;;;5038706;28;20036;-63
2023/09/17 12:44:01;;;;;;;3.55;1.88;;;;;;;;;;5038731;28;20029;-63
2023/09/17 12:46:27;;;;;;;2.78;1.90;;;;;;;;;;5039487;28;20022;-63
2023/09/17 12:48:53;;;;;;;3.05;1.90;;;;;;;;;;5037009;28;20028;-64
2023/09/17 12:51:19;;;;;;;3.08;1.98;;;;;;;;;;5038097;28;20029;-63
2023/09/17 12:53:45;;;;;;;3.47;1.90;;;;;;;;;;5037792;28;20401;-64
2023/09/17 12:56:12;;;;;;;3.35;1.98;;;;;;;;;;5040392;28;20073;-64
2023/09/17 12:58:38;;;;;;;2.45;1.88;;;;;;;;;;5038278;28;20037;-64
2023/09/17 13:01:07;;;;;;;3.05;2.22;;;;;;;;;;5038384;28;20094;-64
2023/09/17 13:03:33;;;;;;;3.15;1.92;;;;;;;;;;5047000;28;20060;-64
2023/09/17 13:05:59;;;;;;;2.85;1.83;;;;;;;;;;5051749;28;20021;-64
2023/09/17 13:08:27;;;;;;;3.75;2.08;;;;;;;;;;5040605;28;20056;-63
2023/09/17 13:10:55;;;;;;;3.50;2.40;;;;;;;;;;5047149;28;20021;-64
2023/09/17 13:13:21;;;;;;;4.15;2.40;;;;;;;;;;5039792;28;20075;-64
2023/09/17 13:15:48;;;;;;;4.03;1.95;;;;;;;;;;5037802;28;20071;-64
2023/09/17 13:18:15;;;;;;;3.80;2.30;;;;;;;;;;5036021;28;20395;-64
2023/09/17 13:20:41;;;;;;;2.88;2.10;;;;;;;;;;5046810;28;20057;-64
2023/09/17 13:23:08;;;;;;;3.72;2.20;;;;;;;;;;5038103;28;20498;-64
2023/09/17 13:25:34;;;;;;;4.82;2.20;;;;;;;;;;5038096;28;20033;-64
2023/09/17 13:28:14;;;;;;;3.80;2.05;;;;;;;;;;5038179;28;20026;-64
2023/09/17 13:30:41;;;;;;;4.47;2.10;;;;;;;;;;5038153;28;20029;-64
2023/09/17 13:33:07;;;;;;;3.08;2.15;;;;;;;;;;5038020;28;20437;-64
2023/09/17 13:35:33;;;;;;;3.40;2.40;;;;;;;;;;5038797;28;20033;-65
2023/09/17 13:37:59;;;;;;;5.03;2.28;;;;;;;;;;5038586;28;20067;-65
2023/09/17 13:40:25;;;;;;;3.60;2.00;;;;;;;;;;5037854;28;20031;-65
2023/09/17 13:42:51;;;;;;;2.45;2.03;;;;;;;;;;5036826;28;20022;-63
2023/09/17 13:45:19;;;;;;;2.97;2.00;;;;;;;;;;5037477;28;20436;-64
2023/09/17 13:47:45;;;;;;;2.92;2.03;;;;;;;;;;5039151;28;20562;-64
2023/09/17 13:50:11;;;;;;;3.60;2.10;;;;;;;;;;5037782;28;20076;-63
2023/09/17 13:52:37;;;;;;;3.55;2.10;;;;;;;;;;5036520;28;20064;-63
2023/09/17 13:55:03;;;;;;;3.78;2.50;;;;;;;;;;5046288;28;20036;-63
2023/09/17 13:57:29;;;;;;;2.28;1.85;;;;;;;;;;5037130;28;20049;-63
2023/09/17 13:59:55;;;;;;;3.13;2.10;;;;;;;;;;5037657;28;20038;-64
2023/09/17 14:02:21;;;;;;;2.80;1.83;;;;;;;;;;5037725;28;20103;-63
2023/09/17 14:04:48;;;;;;;3.58;1.90;;;;;;;;;;5037517;28;20445;-64
2023/09/17 14:07:14;;;;;;;2.58;1.70;;;;;;;;;;5037617;28;20021;-64
2023/09/17 14:09:40;;;;;;;3.03;1.80;;;;;;;;;;5038481;28;20022;-63
2023/09/17 14:12:08;;;;;;;2.45;1.98;;;;;;;;;;5037567;28;20029;-68
2023/09/17 14:14:34;;;;;;;2.53;1.80;;;;;;;;;;5037098;28;20026;-66
2023/09/17 14:17:00;;;;;;;2.92;1.90;;;;;;;;;;5036170;28;20051;-71
2023/09/17 14:19:26;;;;;;;3.30;1.85;;;;;;;;;;5035725;28;20036;-67
2023/09/17 14:21:52;;;;;;;3.50;2.00;;;;;;;;;;5037025;28;20029;-66
2023/09/17 14:24:18;;;;;;;3.97;1.88;;;;;;;;;;5035804;28;20025;-67
2023/09/17 14:26:44;;;;;;;3.92;1.48;;;;;;;;;;5035814;28;20072;-67
2023/09/17 14:29:10;;;;;;;2.45;1.65;;;;;;;;;;5037334;28;20033;-67
2023/09/17 14:31:36;;;;;;;2.88;1.88;;;;;;;;;;5035716;28;20021;-67
2023/09/17 14:34:02;;;;;;;2.97;1.83;;;;;;;;;;5036252;28;20033;-69
2023/09/17 14:36:28;;;;;;;3.83;1.50;;;;;;;;;;5037079;28;20440;-70
2023/09/17 14:38:55;;;;;;;3.75;1.80;;;;;;;;;;5037407;28;20404;-68
2023/09/17 14:41:21;;;;;;;1.88;1.55;;;;;;;;;;5036966;28;20072;-67
2023/09/17 14:43:47;;;;;;;2.80;1.80;;;;;;;;;;5037255;28;20434;-67